Terminal Aerodrome Forecast
Issued by NWS

Home | Current Version | Previous Version | Text Only | Print | Product List | Glossary On
Versions: 1 2 3 4 5 6 7 8 9 10 11 12 13 14 15 16 17 18 19
000
FTUS43 KJKL 261725
TAFSJS
TAF
KSJS 261725Z 2618/2718 23005KT P6SM -SHRA VCTS BKN020CB BKN050
      TEMPO 2619/2623 4SM TS BKN025CB
     FM270100 VRB03KT P6SM BKN100
     FM270600 VRB03KT 3SM BR BKN100=

USA.gov is the U.S. government's official web portal to all federal, state and local government web resources and services.